createdAt,value
2016-12-15T00:00:40.307Z,-87
2016-12-15T00:01:40.289Z,-86
2016-12-15T00:02:40.356Z,-87
2016-12-15T00:03:40.299Z,-86
2016-12-15T00:04:40.306Z,-86
2016-12-15T00:05:40.291Z,-86
2016-12-15T00:06:40.458Z,-86
2016-12-15T00:07:40.564Z,-86
2016-12-15T00:08:40.289Z,-86
2016-12-15T00:09:40.392Z,-86
2016-12-15T00:10:40.332Z,-87
2016-12-15T00:11:40.430Z,-86
2016-12-15T00:12:40.341Z,-86
2016-12-15T00:13:40.370Z,-86
2016-12-15T00:14:40.262Z,-86
2016-12-15T00:15:40.381Z,-86
2016-12-15T00:16:40.321Z,-86
2016-12-15T00:17:40.335Z,-87
2016-12-15T00:18:40.301Z,-86
2016-12-15T00:19:40.504Z,-87
2016-12-15T00:20:40.401Z,-86
2016-12-15T00:21:40.437Z,-86
2016-12-15T00:22:40.521Z,-86
2016-12-15T00:23:40.410Z,-87
2016-12-15T00:24:40.342Z,-86
2016-12-15T00:25:40.458Z,-87
2016-12-15T00:26:40.376Z,-87
2016-12-15T00:27:40.432Z,-86
2016-12-15T00:28:40.485Z,-86
2016-12-15T00:29:40.438Z,-86
2016-12-15T00:30:40.321Z,-87
2016-12-15T00:31:40.312Z,-87
2016-12-15T00:32:40.290Z,-86
2016-12-15T00:33:40.430Z,-86
2016-12-15T00:34:40.476Z,-86
2016-12-15T00:35:40.455Z,-86
2016-12-15T00:36:40.417Z,-86
2016-12-15T00:37:40.442Z,-86
2016-12-15T00:38:40.487Z,-86
2016-12-15T00:39:40.392Z,-86
2016-12-15T00:40:40.488Z,-86
2016-12-15T00:41:40.400Z,-87
2016-12-15T00:42:40.637Z,-86
2016-12-15T00:43:40.347Z,-86
2016-12-15T00:44:40.410Z,-86
2016-12-15T00:45:40.542Z,-86
2016-12-15T00:46:40.531Z,-86
2016-12-15T00:47:40.452Z,-87
2016-12-15T00:48:40.519Z,-86
2016-12-15T00:49:40.510Z,-86
2016-12-15T00:50:40.489Z,-87
2016-12-15T00:51:40.547Z,-87
2016-12-15T00:52:40.492Z,-86
2016-12-15T00:53:40.572Z,-88
2016-12-15T00:54:40.472Z,-87
2016-12-15T00:55:40.424Z,-86
2016-12-15T00:56:40.518Z,-87
2016-12-15T00:57:40.489Z,-86
2016-12-15T00:58:40.493Z,-87
2016-12-15T00:59:40.467Z,-87
2016-12-15T01:00:40.551Z,-85
2016-12-15T01:01:40.553Z,-86
2016-12-15T01:02:40.451Z,-86
2016-12-15T01:03:40.517Z,-86
2016-12-15T01:04:40.473Z,-86
2016-12-15T01:05:40.484Z,-86
2016-12-15T01:06:40.542Z,-86
2016-12-15T01:07:40.537Z,-86
2016-12-15T01:08:40.597Z,-86
2016-12-15T01:09:40.601Z,-87
2016-12-15T01:10:40.649Z,-86
2016-12-15T01:11:40.535Z,-86
2016-12-15T01:12:40.640Z,-86
2016-12-15T01:13:40.601Z,-85
2016-12-15T01:14:40.514Z,-86
2016-12-15T01:15:40.597Z,-86
2016-12-15T01:16:40.625Z,-86
2016-12-15T01:17:40.527Z,-87
2016-12-15T01:18:40.869Z,-86
2016-12-15T01:19:40.488Z,-86
2016-12-15T01:20:40.492Z,-87
2016-12-15T01:21:40.682Z,-86
2016-12-15T01:22:40.433Z,-86
2016-12-15T01:23:40.618Z,-86
2016-12-15T01:24:40.561Z,-86
2016-12-15T01:25:40.527Z,-86
2016-12-15T01:26:40.548Z,-86
2016-12-15T01:27:40.655Z,-86
2016-12-15T01:28:40.636Z,-86
2016-12-15T01:29:40.545Z,-86
2016-12-15T01:30:40.542Z,-86
2016-12-15T01:31:40.607Z,-86
2016-12-15T01:32:40.608Z,-86
2016-12-15T01:33:40.595Z,-86
2016-12-15T01:34:40.655Z,-86
2016-12-15T01:35:40.623Z,-86
2016-12-15T01:36:40.487Z,-86
2016-12-15T01:37:40.624Z,-86
2016-12-15T01:38:40.488Z,-86
2016-12-15T01:39:40.691Z,-86
2016-12-15T01:40:40.566Z,-86
2016-12-15T01:41:40.565Z,-86
2016-12-15T01:42:40.672Z,-86
2016-12-15T01:43:40.585Z,-86
2016-12-15T01:44:40.680Z,-86
2016-12-15T01:45:40.536Z,-86
2016-12-15T01:46:40.705Z,-86
2016-12-15T01:47:40.598Z,-86
2016-12-15T01:48:40.592Z,-86
2016-12-15T01:49:40.667Z,-87
2016-12-15T01:50:40.708Z,-86
2016-12-15T01:51:40.615Z,-87
2016-12-15T01:52:40.595Z,-87
2016-12-15T01:53:40.620Z,-87
2016-12-15T01:54:40.587Z,-86
2016-12-15T01:55:40.554Z,-86
2016-12-15T01:56:40.673Z,-86
2016-12-15T01:57:40.721Z,-86
2016-12-15T01:58:40.706Z,-87
2016-12-15T01:59:40.548Z,-86
2016-12-15T02:00:40.684Z,-86
2016-12-15T02:01:40.759Z,-86
2016-12-15T02:02:40.753Z,-86
2016-12-15T02:03:40.867Z,-87
2016-12-15T02:04:40.737Z,-86
2016-12-15T02:05:40.694Z,-86
2016-12-15T02:06:40.701Z,-86
2016-12-15T02:07:40.755Z,-86
2016-12-15T02:08:40.624Z,-86
2016-12-15T02:09:40.580Z,-87
2016-12-15T02:10:40.641Z,-86
2016-12-15T02:11:40.712Z,-86
2016-12-15T02:12:40.604Z,-86
2016-12-15T02:13:40.819Z,-86
2016-12-15T02:14:40.697Z,-86
2016-12-15T02:15:40.738Z,-86
2016-12-15T02:16:40.658Z,-86
2016-12-15T02:17:40.812Z,-86
2016-12-15T02:18:40.723Z,-86
2016-12-15T02:19:40.622Z,-86
2016-12-15T02:20:40.722Z,-86
2016-12-15T02:21:40.659Z,-86
2016-12-15T02:22:40.793Z,-86
2016-12-15T02:23:40.890Z,-86
2016-12-15T02:24:40.692Z,-86
2016-12-15T02:25:40.849Z,-86
2016-12-15T02:26:40.682Z,-86
2016-12-15T02:27:40.636Z,-86
2016-12-15T02:28:40.754Z,-86
2016-12-15T02:29:40.631Z,-86
2016-12-15T02:30:40.782Z,-86
2016-12-15T02:31:40.758Z,-86
2016-12-15T02:32:40.673Z,-86
2016-12-15T02:33:40.775Z,-86
2016-12-15T02:34:40.783Z,-86
2016-12-15T02:35:40.789Z,-86
2016-12-15T02:36:40.720Z,-86
2016-12-15T02:37:40.993Z,-86
2016-12-15T02:38:40.775Z,-86
2016-12-15T02:39:40.677Z,-86
2016-12-15T02:40:40.755Z,-86
2016-12-15T02:41:40.750Z,-86
2016-12-15T02:42:40.741Z,-86
2016-12-15T02:43:40.777Z,-86
2016-12-15T02:44:40.777Z,-86
2016-12-15T02:45:41.060Z,-87
2016-12-15T02:46:40.915Z,-87
2016-12-15T02:47:40.812Z,-87
2016-12-15T02:48:40.818Z,-86
2016-12-15T02:49:40.758Z,-86
2016-12-15T02:50:40.799Z,-86
2016-12-15T02:51:40.865Z,-86
2016-12-15T02:52:40.754Z,-86
2016-12-15T02:53:40.763Z,-86
2016-12-15T02:54:40.917Z,-86
2016-12-15T02:55:40.850Z,-86
2016-12-15T02:56:40.842Z,-85
2016-12-15T02:57:40.914Z,-86
2016-12-15T02:58:40.834Z,-86
2016-12-15T02:59:40.840Z,-86
2016-12-15T03:00:40.854Z,-86
2016-12-15T03:01:40.849Z,-86
2016-12-15T03:02:40.821Z,-86
2016-12-15T03:03:40.790Z,-86
2016-12-15T03:04:40.812Z,-85
2016-12-15T03:05:40.914Z,-86
2016-12-15T03:06:40.784Z,-86
2016-12-15T03:07:40.779Z,-86
2016-12-15T03:08:40.868Z,-86
2016-12-15T03:09:40.889Z,-86
2016-12-15T03:10:40.942Z,-86
2016-12-15T03:11:40.895Z,-86
2016-12-15T03:12:40.987Z,-86
2016-12-15T03:13:40.824Z,-86
2016-12-15T03:14:40.834Z,-86
2016-12-15T03:15:40.892Z,-86
2016-12-15T03:16:40.926Z,-86
2016-12-15T03:17:40.845Z,-86
2016-12-15T03:18:40.868Z,-86
2016-12-15T03:19:40.852Z,-86
2016-12-15T03:20:40.847Z,-86
2016-12-15T03:21:40.801Z,-86
2016-12-15T03:22:40.858Z,-86
2016-12-15T03:23:40.857Z,-86
2016-12-15T03:24:40.873Z,-86
2016-12-15T03:25:40.935Z,-86
2016-12-15T03:26:41.201Z,-86
2016-12-15T03:27:40.867Z,-86
2016-12-15T03:28:40.921Z,-86
2016-12-15T03:29:40.942Z,-86
2016-12-15T03:30:40.865Z,-86
2016-12-15T03:31:40.866Z,-86
2016-12-15T03:32:40.941Z,-86
2016-12-15T03:33:40.875Z,-86
2016-12-15T03:34:41.122Z,-86
2016-12-15T03:35:40.962Z,-86
2016-12-15T03:36:40.865Z,-86
2016-12-15T03:37:40.824Z,-86
2016-12-15T03:38:41.022Z,-86
2016-12-15T03:39:40.900Z,-86
2016-12-15T03:40:41.000Z,-86
2016-12-15T03:41:40.831Z,-86
2016-12-15T03:42:40.851Z,-86
2016-12-15T03:43:40.970Z,-86
2016-12-15T03:44:40.955Z,-86
2016-12-15T03:45:40.974Z,-86
2016-12-15T03:46:41.062Z,-86
2016-12-15T03:47:40.941Z,-86
2016-12-15T03:48:40.915Z,-86
2016-12-15T03:49:40.973Z,-86
2016-12-15T03:50:41.125Z,-86
2016-12-15T03:51:41.042Z,-87
2016-12-15T03:52:40.976Z,-86
2016-12-15T03:53:41.034Z,-86
2016-12-15T03:54:41.047Z,-86
2016-12-15T03:55:41.046Z,-86
2016-12-15T03:56:41.047Z,-86
2016-12-15T03:57:40.988Z,-86
2016-12-15T03:58:40.943Z,-86
2016-12-15T03:59:41.006Z,-86
2016-12-15T04:00:40.894Z,-86
2016-12-15T04:01:40.983Z,-86
2016-12-15T04:02:41.056Z,-86
2016-12-15T04:03:41.016Z,-86
2016-12-15T04:04:40.939Z,-86
2016-12-15T04:05:41.028Z,-86
2016-12-15T04:06:41.233Z,-86
2016-12-15T04:07:40.913Z,-86
2016-12-15T04:08:41.092Z,-86
2016-12-15T04:09:41.351Z,-87
2016-12-15T04:10:41.057Z,-86
2016-12-15T04:11:40.960Z,-86
2016-12-15T04:12:41.065Z,-86
2016-12-15T04:13:40.993Z,-86
2016-12-15T04:14:41.003Z,-86
2016-12-15T04:15:41.071Z,-86
2016-12-15T04:16:41.029Z,-86
2016-12-15T04:17:41.084Z,-86
2016-12-15T04:18:41.124Z,-86
2016-12-15T04:19:41.159Z,-86
2016-12-15T04:20:41.155Z,-86
2016-12-15T04:21:41.036Z,-86
2016-12-15T04:22:41.051Z,-86
2016-12-15T04:23:41.128Z,-86
2016-12-15T04:24:41.012Z,-86
2016-12-15T04:25:41.259Z,-85
2016-12-15T04:26:41.179Z,-86
2016-12-15T04:27:40.997Z,-86
2016-12-15T04:28:41.091Z,-87
2016-12-15T04:29:40.958Z,-86
2016-12-15T04:30:41.091Z,-86
2016-12-15T04:31:41.229Z,-86
2016-12-15T04:32:41.040Z,-86
2016-12-15T04:33:41.052Z,-86
2016-12-15T04:34:41.044Z,-86
2016-12-15T04:35:41.131Z,-86
2016-12-15T04:36:41.104Z,-86
2016-12-15T04:37:40.988Z,-86
2016-12-15T04:38:41.093Z,-86
2016-12-15T04:39:41.114Z,-86
2016-12-15T04:40:41.116Z,-86
2016-12-15T04:41:41.069Z,-86
2016-12-15T04:42:41.124Z,-86
2016-12-15T04:43:41.131Z,-86
2016-12-15T04:44:41.142Z,-86
2016-12-15T04:45:41.120Z,-86
2016-12-15T04:46:41.132Z,-86
2016-12-15T04:47:41.375Z,-86
2016-12-15T04:48:41.156Z,-87
2016-12-15T04:49:41.196Z,-86
2016-12-15T04:50:41.278Z,-86
2016-12-15T04:51:41.185Z,-86
2016-12-15T04:52:41.087Z,-86
2016-12-15T04:53:41.169Z,-86
2016-12-15T04:54:41.223Z,-86
2016-12-15T04:55:41.109Z,-86
2016-12-15T04:56:41.176Z,-86
2016-12-15T04:57:41.187Z,-86
2016-12-15T04:58:41.209Z,-86
2016-12-15T04:59:41.554Z,-86
2016-12-15T05:00:41.110Z,-86
2016-12-15T05:01:41.176Z,-86
2016-12-15T05:02:41.098Z,-86
2016-12-15T05:03:41.381Z,-86
2016-12-15T05:04:41.127Z,-86
2016-12-15T05:05:41.217Z,-86
2016-12-15T05:06:41.127Z,-86
2016-12-15T05:07:41.538Z,-86
2016-12-15T05:08:41.228Z,-86
2016-12-15T05:09:41.120Z,-86
2016-12-15T05:10:41.296Z,-86
2016-12-15T05:11:41.225Z,-86
2016-12-15T05:12:41.121Z,-86
2016-12-15T05:13:41.128Z,-86
2016-12-15T05:14:41.169Z,-86
2016-12-15T05:15:41.244Z,-86
2016-12-15T05:16:41.171Z,-86
2016-12-15T05:17:41.415Z,-86
2016-12-15T05:18:41.297Z,-86
2016-12-15T05:19:41.228Z,-85
2016-12-15T05:20:41.272Z,-86
2016-12-15T05:21:41.239Z,-86
2016-12-15T05:22:41.237Z,-86
2016-12-15T05:23:41.151Z,-86
2016-12-15T05:24:41.133Z,-86
2016-12-15T05:25:41.542Z,-85
2016-12-15T05:26:41.213Z,-86
2016-12-15T05:27:41.256Z,-86
2016-12-15T05:28:41.352Z,-86
2016-12-15T05:29:41.308Z,-86
2016-12-15T05:30:41.257Z,-86
2016-12-15T05:31:41.198Z,-86
2016-12-15T05:32:41.268Z,-86
2016-12-15T05:33:41.227Z,-86
2016-12-15T05:34:41.330Z,-86
2016-12-15T05:35:41.262Z,-86
2016-12-15T05:36:41.349Z,-86
2016-12-15T05:37:41.248Z,-86
2016-12-15T05:38:41.237Z,-86
2016-12-15T05:39:41.225Z,-86
2016-12-15T05:40:41.359Z,-86
2016-12-15T05:41:41.146Z,-85
2016-12-15T05:42:41.360Z,-86
2016-12-15T05:43:41.243Z,-86
2016-12-15T05:44:41.232Z,-86
2016-12-15T05:45:41.356Z,-86
2016-12-15T05:46:41.283Z,-86
2016-12-15T05:47:41.369Z,-86
2016-12-15T05:48:41.224Z,-86
2016-12-15T05:49:41.378Z,-86
2016-12-15T05:50:41.291Z,-86
2016-12-15T05:51:41.425Z,-86
2016-12-15T05:52:41.256Z,-86
2016-12-15T05:53:41.277Z,-86
2016-12-15T05:54:41.218Z,-86
2016-12-15T05:55:41.330Z,-86
2016-12-15T05:56:41.264Z,-85
2016-12-15T05:57:41.280Z,-86
2016-12-15T05:58:41.294Z,-86
2016-12-15T05:59:41.265Z,-86
2016-12-15T06:00:41.279Z,-86
2016-12-15T06:01:41.284Z,-86
2016-12-15T06:02:41.222Z,-86
2016-12-15T06:03:41.426Z,-86
2016-12-15T06:04:41.418Z,-86
2016-12-15T06:05:41.352Z,-86
2016-12-15T06:06:41.352Z,-86
2016-12-15T06:07:41.383Z,-86
2016-12-15T06:08:41.407Z,-86
2016-12-15T06:09:41.371Z,-86
2016-12-15T06:10:41.291Z,-86
2016-12-15T06:11:41.478Z,-86
2016-12-15T06:12:41.291Z,-86
2016-12-15T06:13:41.346Z,-86
2016-12-15T06:14:41.293Z,-86
2016-12-15T06:15:41.447Z,-86
2016-12-15T06:16:41.374Z,-86
2016-12-15T06:17:41.393Z,-86
2016-12-15T06:18:41.407Z,-86
2016-12-15T06:19:41.358Z,-86
2016-12-15T06:20:41.299Z,-86
2016-12-15T06:21:41.395Z,-85
2016-12-15T06:22:41.408Z,-86
2016-12-15T06:23:41.546Z,-86
2016-12-15T06:24:41.595Z,-86
2016-12-15T06:25:41.483Z,-86
2016-12-15T06:26:41.286Z,-86
2016-12-15T06:27:41.376Z,-85
2016-12-15T06:28:41.296Z,-85
2016-12-15T06:29:41.495Z,-86
2016-12-15T06:30:41.395Z,-86
2016-12-15T06:31:41.452Z,-86
2016-12-15T06:32:41.411Z,-86
2016-12-15T06:33:41.386Z,-85
2016-12-15T06:34:41.417Z,-86
2016-12-15T06:35:41.470Z,-86
2016-12-15T06:36:41.462Z,-86
2016-12-15T06:37:41.337Z,-87
2016-12-15T06:38:41.497Z,-86
2016-12-15T06:39:41.403Z,-87
2016-12-15T06:40:41.448Z,-86
2016-12-15T06:41:41.501Z,-87
2016-12-15T06:42:41.467Z,-86
2016-12-15T06:43:41.441Z,-87
2016-12-15T06:44:41.530Z,-87
2016-12-15T06:45:41.576Z,-86
2016-12-15T06:46:41.506Z,-86
2016-12-15T06:47:41.448Z,-86
2016-12-15T06:48:41.846Z,-86
2016-12-15T06:49:41.509Z,-86
2016-12-15T06:50:41.556Z,-87
2016-12-15T06:51:41.447Z,-87
2016-12-15T06:52:41.433Z,-86
2016-12-15T06:53:41.510Z,-86
2016-12-15T06:54:41.556Z,-86
2016-12-15T06:55:42.081Z,-87
2016-12-15T06:56:41.718Z,-86
2016-12-15T06:57:41.655Z,-86
2016-12-15T06:58:41.625Z,-86
2016-12-15T06:59:41.704Z,-86
2016-12-15T07:00:41.661Z,-87
2016-12-15T07:01:41.544Z,-86
2016-12-15T07:02:41.587Z,-87
2016-12-15T07:03:41.514Z,-86
2016-12-15T07:04:41.582Z,-86
2016-12-15T07:05:41.546Z,-86
2016-12-15T07:06:41.522Z,-86
2016-12-15T07:07:41.523Z,-86
2016-12-15T07:08:41.663Z,-89
2016-12-15T07:09:41.448Z,-88
2016-12-15T07:10:41.582Z,-88
2016-12-15T07:11:41.507Z,-88
2016-12-15T07:12:41.714Z,-88
2016-12-15T07:13:41.473Z,-87
2016-12-15T07:14:41.508Z,-88
2016-12-15T07:15:41.441Z,-88
2016-12-15T07:16:41.692Z,-87
2016-12-15T07:17:41.576Z,-88
2016-12-15T07:18:41.442Z,-88
2016-12-15T07:19:41.588Z,-88
2016-12-15T07:20:41.673Z,-88
2016-12-15T07:21:41.563Z,-88
2016-12-15T07:22:41.534Z,-87
2016-12-15T07:23:41.730Z,-88
2016-12-15T07:24:41.871Z,-88
2016-12-15T07:25:41.558Z,-88
2016-12-15T07:26:41.810Z,-88
2016-12-15T07:27:41.491Z,-88
2016-12-15T07:28:41.653Z,-88
2016-12-15T07:29:42.170Z,-88
2016-12-15T07:30:41.697Z,-89
2016-12-15T07:31:41.615Z,-87
2016-12-15T07:32:41.506Z,-88
2016-12-15T07:33:41.536Z,-88
2016-12-15T07:34:41.651Z,-88
2016-12-15T07:35:41.492Z,-88
2016-12-15T07:36:41.693Z,-88
2016-12-15T07:37:41.663Z,-88
2016-12-15T07:38:41.573Z,-88
2016-12-15T07:39:41.650Z,-87
2016-12-15T07:40:41.635Z,-88
2016-12-15T07:41:41.613Z,-88
2016-12-15T07:42:41.775Z,-89
2016-12-15T07:43:41.579Z,-88
2016-12-15T07:44:41.579Z,-87
2016-12-15T07:45:41.800Z,-87
2016-12-15T07:46:41.768Z,-88
2016-12-15T07:47:41.742Z,-88
2016-12-15T07:48:41.731Z,-88
2016-12-15T07:49:41.683Z,-88
2016-12-15T07:50:41.718Z,-87
2016-12-15T07:51:41.773Z,-88
2016-12-15T07:52:41.821Z,-88
2016-12-15T07:53:41.641Z,-88
2016-12-15T07:54:41.632Z,-87
2016-12-15T07:55:41.766Z,-88
2016-12-15T07:56:41.690Z,-88
2016-12-15T07:57:41.717Z,-88
2016-12-15T07:58:41.561Z,-88
2016-12-15T07:59:41.791Z,-88
2016-12-15T08:00:41.769Z,-88
2016-12-15T08:01:42.131Z,-88
2016-12-15T08:02:41.683Z,-88
2016-12-15T08:03:45.059Z,-88
2016-12-15T08:04:44.018Z,-88
2016-12-15T08:05:44.559Z,-87
2016-12-15T08:06:45.521Z,-88
2016-12-15T08:07:42.907Z,-88
2016-12-15T08:08:49.041Z,-88
2016-12-15T08:09:43.891Z,-87
2016-12-15T08:10:44.344Z,-87
2016-12-15T08:11:43.044Z,-87
2016-12-15T08:12:43.937Z,-88
2016-12-15T08:13:44.273Z,-88
2016-12-15T08:14:42.735Z,-87
2016-12-15T08:15:41.807Z,-87
2016-12-15T08:16:41.759Z,-88
2016-12-15T08:17:41.843Z,-88
2016-12-15T08:18:41.770Z,-88
2016-12-15T08:19:42.019Z,-88
2016-12-15T08:20:41.744Z,-87
2016-12-15T08:21:41.701Z,-88
2016-12-15T08:22:41.805Z,-87
2016-12-15T08:23:41.757Z,-88
2016-12-15T08:24:41.825Z,-87
2016-12-15T08:25:41.814Z,-87
2016-12-15T08:26:41.797Z,-87
2016-12-15T08:27:41.833Z,-87
2016-12-15T08:28:41.727Z,-87
2016-12-15T08:29:41.713Z,-87
2016-12-15T08:30:41.783Z,-87
2016-12-15T08:31:41.732Z,-87
2016-12-15T08:32:41.885Z,-88
2016-12-15T08:33:41.932Z,-88
2016-12-15T08:34:41.883Z,-88
2016-12-15T08:35:41.875Z,-88
2016-12-15T08:36:41.808Z,-88
2016-12-15T08:37:41.850Z,-88
2016-12-15T08:38:41.830Z,-87
2016-12-15T08:39:41.709Z,-88
2016-12-15T08:40:41.782Z,-88
2016-12-15T08:41:41.875Z,-88
2016-12-15T08:42:41.924Z,-88
2016-12-15T08:43:41.936Z,-87
2016-12-15T08:44:41.745Z,-88
2016-12-15T08:45:42.014Z,-88
2016-12-15T08:46:41.850Z,-88
2016-12-15T08:47:41.818Z,-87
2016-12-15T08:48:41.844Z,-88
2016-12-15T08:49:41.798Z,-87
2016-12-15T08:50:41.881Z,-88
2016-12-15T08:51:41.842Z,-88
2016-12-15T08:52:41.893Z,-88
2016-12-15T08:53:41.975Z,-87
2016-12-15T08:54:42.481Z,-87
2016-12-15T08:55:42.244Z,-87
2016-12-15T08:56:41.917Z,-88
2016-12-15T08:57:41.845Z,-87
2016-12-15T08:58:42.537Z,-87
2016-12-15T08:59:42.065Z,-88
2016-12-15T09:00:41.814Z,-88
2016-12-15T09:01:41.857Z,-88
2016-12-15T09:02:41.947Z,-87
2016-12-15T09:03:41.890Z,-88
2016-12-15T09:04:42.101Z,-88
2016-12-15T09:05:41.982Z,-87
2016-12-15T09:06:42.433Z,-87
2016-12-15T09:07:42.035Z,-87
2016-12-15T09:08:42.098Z,-87
2016-12-15T09:09:42.001Z,-87
2016-12-15T09:10:42.288Z,-87
2016-12-15T09:11:41.875Z,-87
2016-12-15T09:12:41.951Z,-88
2016-12-15T09:13:41.970Z,-87
2016-12-15T09:14:42.112Z,-87
2016-12-15T09:15:42.086Z,-87
2016-12-15T09:16:41.980Z,-87
2016-12-15T09:17:41.767Z,-87
2016-12-15T09:18:41.941Z,-87
2016-12-15T09:19:42.131Z,-87
2016-12-15T09:20:41.895Z,-87
2016-12-15T09:21:42.109Z,-87
2016-12-15T09:22:42.064Z,-87
2016-12-15T09:23:41.852Z,-87
2016-12-15T09:24:42.170Z,-88
2016-12-15T09:25:42.026Z,-87
2016-12-15T09:26:42.141Z,-87
2016-12-15T09:27:42.311Z,-87
2016-12-15T09:28:42.016Z,-87
2016-12-15T09:29:41.888Z,-87
2016-12-15T09:30:42.056Z,-87
2016-12-15T09:31:41.985Z,-87
2016-12-15T09:32:42.179Z,-88
2016-12-15T09:33:42.099Z,-88
2016-12-15T09:34:42.157Z,-88
2016-12-15T09:35:41.953Z,-88
2016-12-15T09:36:41.937Z,-87
2016-12-15T09:37:42.101Z,-88
2016-12-15T09:38:42.242Z,-88
2016-12-15T09:39:42.067Z,-88
2016-12-15T09:40:42.328Z,-87
2016-12-15T09:41:42.060Z,-87
2016-12-15T09:42:42.150Z,-88
2016-12-15T09:43:42.063Z,-88
2016-12-15T09:44:42.347Z,-86
2016-12-15T09:45:41.953Z,-88
2016-12-15T09:46:42.098Z,-88
2016-12-15T09:47:42.143Z,-88
2016-12-15T09:48:42.161Z,-88
2016-12-15T09:49:42.054Z,-89
2016-12-15T09:50:42.149Z,-88
2016-12-15T09:51:41.985Z,-89
2016-12-15T09:52:42.009Z,-88
2016-12-15T09:53:42.293Z,-88
2016-12-15T09:54:42.266Z,-87
2016-12-15T09:55:42.134Z,-87
2016-12-15T09:56:42.278Z,-86
2016-12-15T09:57:42.004Z,-86
2016-12-15T09:58:42.093Z,-87
2016-12-15T09:59:42.032Z,-88
2016-12-15T10:00:42.073Z,-87
2016-12-15T10:01:41.975Z,-88
2016-12-15T10:02:42.099Z,-87
2016-12-15T10:03:42.327Z,-88
2016-12-15T10:04:42.414Z,-88
2016-12-15T10:05:42.196Z,-89
2016-12-15T10:06:42.161Z,-89
2016-12-15T10:07:42.052Z,-89
2016-12-15T10:08:42.198Z,-89
2016-12-15T10:09:42.251Z,-88
2016-12-15T10:10:42.561Z,-89
2016-12-15T10:11:42.074Z,-90
2016-12-15T10:12:42.276Z,-91
2016-12-15T10:13:42.319Z,-88
2016-12-15T10:14:42.138Z,-90
2016-12-15T10:15:42.306Z,-89
2016-12-15T10:16:43.158Z,-89
2016-12-15T10:17:42.060Z,-88
2016-12-15T10:18:42.246Z,-90
2016-12-15T10:19:42.115Z,-90
2016-12-15T10:20:42.157Z,-92
2016-12-15T10:21:41.979Z,-92
2016-12-15T10:22:42.290Z,-94
2016-12-15T10:23:42.213Z,-92
2016-12-15T10:24:42.313Z,-92
2016-12-15T10:25:42.448Z,-93
2016-12-15T10:26:42.397Z,-92
2016-12-15T10:27:42.208Z,-93
2016-12-15T10:28:42.192Z,-91
2016-12-15T10:29:42.246Z,-92
2016-12-15T10:30:42.528Z,-92
2016-12-15T10:31:42.268Z,-92
2016-12-15T10:32:42.336Z,-93
2016-12-15T10:33:42.949Z,-94
2016-12-15T10:34:42.288Z,-93
2016-12-15T10:35:43.247Z,-91
2016-12-15T10:36:43.168Z,-92
2016-12-15T10:37:42.559Z,-92
2016-12-15T10:38:43.369Z,-91
2016-12-15T10:39:42.635Z,-92
2016-12-15T10:40:42.254Z,-92
2016-12-15T10:41:42.220Z,-92
2016-12-15T10:42:42.304Z,-92
2016-12-15T10:43:42.168Z,-91
2016-12-15T10:44:42.327Z,-92
2016-12-15T10:45:42.178Z,-92
2016-12-15T10:46:43.193Z,-91
2016-12-15T10:47:42.307Z,-90
2016-12-15T10:48:42.632Z,-93
2016-12-15T10:49:42.321Z,-92
2016-12-15T10:50:42.347Z,-90
2016-12-15T10:51:42.289Z,-90
2016-12-15T10:52:42.394Z,-92
2016-12-15T10:53:42.249Z,-90
2016-12-15T10:54:42.336Z,-91
2016-12-15T10:55:42.188Z,-92
2016-12-15T10:56:42.453Z,-91
2016-12-15T10:57:42.442Z,-92
2016-12-15T10:58:42.682Z,-92
2016-12-15T10:59:42.366Z,-92
2016-12-15T11:00:42.511Z,-93
2016-12-15T11:01:42.195Z,-92
2016-12-15T11:02:42.267Z,-92
2016-12-15T11:03:42.507Z,-93
2016-12-15T11:04:42.404Z,-92
2016-12-15T11:05:42.457Z,-92
2016-12-15T11:06:42.411Z,-93
2016-12-15T11:07:42.300Z,-93
2016-12-15T11:08:42.294Z,-93
2016-12-15T11:09:42.267Z,-93
2016-12-15T11:10:42.411Z,-92
2016-12-15T11:11:42.206Z,-91
2016-12-15T11:12:42.536Z,-92
2016-12-15T11:13:42.225Z,-92
2016-12-15T11:14:42.261Z,-93
2016-12-15T11:15:42.416Z,-92
2016-12-15T11:16:42.490Z,-92
2016-12-15T11:17:42.238Z,-93
2016-12-15T11:18:42.919Z,-92
2016-12-15T11:19:42.203Z,-93
2016-12-15T11:20:42.287Z,-92
2016-12-15T11:21:42.410Z,-91
2016-12-15T11:22:42.541Z,-92
2016-12-15T11:23:42.418Z,-92
2016-12-15T11:24:43.075Z,-90
2016-12-15T11:25:42.270Z,-93
2016-12-15T11:26:42.448Z,-91
2016-12-15T11:27:42.331Z,-91
2016-12-15T11:28:42.502Z,-91
2016-12-15T11:29:42.323Z,-92
2016-12-15T11:30:42.366Z,-91
2016-12-15T11:31:42.510Z,-90
2016-12-15T11:32:42.513Z,-91
2016-12-15T11:33:42.368Z,-89
2016-12-15T11:34:42.412Z,-91
2016-12-15T11:35:44.567Z,-91
2016-12-15T11:36:42.626Z,-91
2016-12-15T11:37:42.649Z,-90
2016-12-15T11:38:42.466Z,-91
2016-12-15T11:39:42.338Z,-91
2016-12-15T11:40:42.463Z,-92
2016-12-15T11:41:42.450Z,-92
2016-12-15T11:42:47.193Z,-90
2016-12-15T11:43:42.320Z,-91
2016-12-15T11:44:42.833Z,-91
2016-12-15T11:45:42.442Z,-91
2016-12-15T11:46:42.438Z,-90
2016-12-15T11:47:42.234Z,-90
2016-12-15T11:48:42.393Z,-91
2016-12-15T11:49:42.350Z,-90
2016-12-15T11:50:42.395Z,-91
2016-12-15T11:51:42.448Z,-91
2016-12-15T11:52:42.393Z,-90
2016-12-15T11:53:42.550Z,-90
2016-12-15T11:54:42.499Z,-90
2016-12-15T11:55:42.453Z,-90
2016-12-15T11:56:42.526Z,-88
2016-12-15T11:57:45.261Z,-89
2016-12-15T11:58:45.341Z,-89
2016-12-15T11:59:42.391Z,-86
2016-12-15T12:00:42.501Z,-87
2016-12-15T12:01:44.247Z,-89
2016-12-15T12:02:42.549Z,-89
2016-12-15T12:03:42.371Z,-89
2016-12-15T12:04:42.508Z,-89
2016-12-15T12:05:42.435Z,-89
2016-12-15T12:06:42.612Z,-89
2016-12-15T12:07:42.513Z,-89
2016-12-15T12:08:42.634Z,-89
2016-12-15T12:09:42.471Z,-89
2016-12-15T12:10:42.705Z,-88
2016-12-15T12:11:42.671Z,-89
2016-12-15T12:12:42.732Z,-88
2016-12-15T12:13:42.313Z,-87
2016-12-15T12:14:42.399Z,-88
2016-12-15T12:15:42.383Z,-87
2016-12-15T12:16:42.685Z,-87
2016-12-15T12:17:42.509Z,-88
2016-12-15T12:18:42.555Z,-89
2016-12-15T12:19:42.524Z,-86
2016-12-15T12:20:42.434Z,-85
2016-12-15T12:21:42.350Z,-87
2016-12-15T12:22:42.696Z,-87
2016-12-15T12:23:42.380Z,-87
2016-12-15T12:24:42.585Z,-85
2016-12-15T12:25:42.665Z,-85
2016-12-15T12:26:42.742Z,-85
2016-12-15T12:27:42.556Z,-85
2016-12-15T12:28:42.569Z,-85
2016-12-15T12:29:42.632Z,-85
2016-12-15T12:30:42.552Z,-84
2016-12-15T12:31:42.547Z,-85
2016-12-15T12:32:42.634Z,-85
2016-12-15T12:33:42.524Z,-84
2016-12-15T12:34:42.546Z,-84
2016-12-15T12:35:42.564Z,-83
2016-12-15T12:36:42.843Z,-84
2016-12-15T12:37:42.730Z,-84
2016-12-15T12:38:43.014Z,-85
2016-12-15T12:39:43.109Z,-84
2016-12-15T12:40:42.588Z,-85
2016-12-15T12:41:42.518Z,-87
2016-12-15T12:42:43.278Z,-86
2016-12-15T12:43:42.836Z,-87
2016-12-15T12:44:42.961Z,-87
2016-12-15T12:45:42.648Z,-86
2016-12-15T12:46:42.548Z,-88
2016-12-15T12:47:42.647Z,-88
2016-12-15T12:48:43.394Z,-89
2016-12-15T12:49:42.558Z,-88
2016-12-15T12:50:42.859Z,-88
2016-12-15T12:51:42.884Z,-88
2016-12-15T12:52:42.493Z,-87
2016-12-15T12:53:42.616Z,-88
2016-12-15T12:54:43.468Z,-87
2016-12-15T12:55:42.632Z,-88
2016-12-15T12:56:43.165Z,-88
2016-12-15T12:57:43.777Z,-87
2016-12-15T12:58:42.881Z,-88
2016-12-15T12:59:42.831Z,-87
2016-12-15T13:00:43.056Z,-87
2016-12-15T13:01:42.643Z,-87
2016-12-15T13:02:44.859Z,-87
2016-12-15T13:03:42.686Z,-87
2016-12-15T13:04:43.761Z,-89
2016-12-15T13:05:42.680Z,-89
2016-12-15T13:06:43.732Z,-88
2016-12-15T13:07:43.066Z,-88
2016-12-15T13:08:44.213Z,-88
2016-12-15T13:09:44.207Z,-89
2016-12-15T13:10:42.712Z,-89
2016-12-15T13:11:43.081Z,-88
2016-12-15T13:12:42.646Z,-87
2016-12-15T13:13:42.865Z,-88
2016-12-15T13:14:43.603Z,-89
2016-12-15T13:15:42.837Z,-89
2016-12-15T13:16:42.712Z,-89
2016-12-15T13:17:42.911Z,-88
2016-12-15T13:18:42.444Z,-90
2016-12-15T13:19:42.655Z,-89
2016-12-15T13:20:42.643Z,-88
2016-12-15T13:21:42.668Z,-89
2016-12-15T13:22:43.488Z,-89
2016-12-15T13:23:42.700Z,-89
2016-12-15T13:24:42.579Z,-88
2016-12-15T13:25:42.694Z,-88
2016-12-15T13:26:42.660Z,-88
2016-12-15T13:27:42.756Z,-88
2016-12-15T13:28:42.569Z,-87
2016-12-15T13:29:42.556Z,-86
2016-12-15T13:30:42.696Z,-86
2016-12-15T13:31:42.805Z,-87
2016-12-15T13:32:42.576Z,-87
2016-12-15T13:33:43.401Z,-87
2016-12-15T13:34:42.566Z,-86
2016-12-15T13:35:42.730Z,-88
2016-12-15T13:36:42.693Z,-88
2016-12-15T13:37:42.706Z,-87
2016-12-15T13:38:42.967Z,-87
2016-12-15T13:39:43.300Z,-87
2016-12-15T13:40:42.936Z,-86
2016-12-15T13:41:42.692Z,-88
2016-12-15T13:42:42.593Z,-88
2016-12-15T13:43:42.730Z,-87
2016-12-15T13:44:42.752Z,-86
2016-12-15T13:45:42.807Z,-87
2016-12-15T13:46:42.583Z,-86